createdAt,value
2022-12-05T00:01:56.106Z,20.74
2022-12-05T00:04:24.245Z,20.75
2022-12-05T00:06:52.224Z,20.75
2022-12-05T00:09:20.129Z,20.73
2022-12-05T00:11:48.276Z,20.73
2022-12-05T00:14:17.540Z,20.72
2022-12-05T00:16:45.946Z,20.71
2022-12-05T00:19:16.546Z,20.69
2022-12-05T00:21:45.205Z,20.69
2022-12-05T00:24:15.663Z,20.69
2022-12-05T00:26:44.118Z,20.68
2022-12-05T00:29:14.515Z,20.68
2022-12-05T00:31:43.884Z,20.68
2022-12-05T00:34:12.156Z,20.66
2022-12-05T00:36:40.308Z,20.66
2022-12-05T00:39:10.712Z,20.66
2022-12-05T00:41:38.836Z,20.66
2022-12-05T00:44:07.067Z,20.65
2022-12-05T00:46:36.229Z,20.65
2022-12-05T00:49:07.450Z,20.65
2022-12-05T00:51:37.540Z,20.63
2022-12-05T00:54:07.853Z,20.61
2022-12-05T00:56:36.645Z,20.62
2022-12-05T00:59:06.468Z,20.61
2022-12-05T01:01:37.328Z,20.62
2022-12-05T01:04:09.726Z,20.60
2022-12-05T01:06:38.353Z,20.60
2022-12-05T01:09:07.003Z,20.59
2022-12-05T01:11:40.959Z,20.59
2022-12-05T01:14:10.039Z,20.58
2022-12-05T01:16:40.096Z,20.59
2022-12-05T01:19:13.027Z,20.59
2022-12-05T01:21:41.405Z,20.58
2022-12-05T01:24:09.764Z,20.59
2022-12-05T01:26:38.042Z,20.57
2022-12-05T01:29:06.608Z,20.56
2022-12-05T01:31:37.127Z,20.55
2022-12-05T01:34:08.456Z,20.55
2022-12-05T01:36:39.345Z,20.54
2022-12-05T01:39:11.595Z,20.53
2022-12-05T01:41:42.457Z,20.54
2022-12-05T01:44:40.328Z,20.54
2022-12-05T01:47:09.750Z,20.56
2022-12-05T01:49:43.187Z,20.58
2022-12-05T01:52:17.472Z,20.59
2022-12-05T01:54:49.250Z,20.59
2022-12-05T01:57:17.520Z,20.59
2022-12-05T01:59:50.834Z,20.59
2022-12-05T02:02:19.383Z,20.59
2022-12-05T02:04:59.147Z,20.58
2022-12-05T02:07:28.785Z,20.58
2022-12-05T02:09:57.024Z,20.59
2022-12-05T02:12:26.005Z,20.58
2022-12-05T02:15:06.704Z,20.57
2022-12-05T02:17:45.040Z,20.57
2022-12-05T02:20:27.543Z,20.57
2022-12-05T02:23:29.840Z,20.57
2022-12-05T02:26:24.616Z,20.57
2022-12-05T02:29:35.911Z,20.55
2022-12-05T02:32:11.867Z,20.55
2022-12-05T02:34:48.881Z,20.55
2022-12-05T02:37:23.938Z,20.55
2022-12-05T02:39:57.824Z,20.55
2022-12-05T02:42:32.777Z,20.53
2022-12-05T02:45:07.209Z,20.54
2022-12-05T02:47:40.001Z,20.52
2022-12-05T02:50:11.510Z,20.52
2022-12-05T02:52:39.887Z,20.52
2022-12-05T02:55:09.523Z,20.50
2022-12-05T02:57:39.651Z,20.50
2022-12-05T03:00:09.203Z,20.50
2022-12-05T03:02:40.685Z,20.49
2022-12-05T03:05:18.288Z,20.49
2022-12-05T03:07:52.551Z,20.48
2022-12-05T03:10:23.343Z,20.49
2022-12-05T03:12:55.975Z,20.47
2022-12-05T03:15:30.757Z,20.45
2022-12-05T03:18:04.599Z,20.45
2022-12-05T03:20:36.334Z,20.45
2022-12-05T03:23:09.676Z,20.44
2022-12-05T03:25:46.879Z,20.43
2022-12-05T03:28:21.149Z,20.43
2022-12-05T03:30:53.383Z,20.43
2022-12-05T03:33:24.486Z,20.42
2022-12-05T03:36:03.591Z,20.42
2022-12-05T03:38:36.222Z,20.40
2022-12-05T03:41:10.556Z,20.40
2022-12-05T03:43:50.561Z,20.39
2022-12-05T03:46:25.152Z,20.40
2022-12-05T03:48:58.742Z,20.39
2022-12-05T03:51:35.459Z,20.38
2022-12-05T03:54:07.825Z,20.37
2022-12-05T03:56:41.574Z,20.36
2022-12-05T03:59:17.457Z,20.36
2022-12-05T04:01:48.436Z,20.34
2022-12-05T04:04:26.775Z,20.36
2022-12-05T04:06:57.269Z,20.35
2022-12-05T04:09:29.633Z,20.34
2022-12-05T04:12:03.303Z,20.33
2022-12-05T04:14:36.565Z,20.33
2022-12-05T04:17:06.233Z,20.33
2022-12-05T04:20:01.216Z,20.32
2022-12-05T04:22:29.906Z,20.34
2022-12-05T04:25:18.150Z,20.32
2022-12-05T04:27:53.468Z,20.32
2022-12-05T04:30:24.601Z,20.31
2022-12-05T04:33:01.274Z,20.32
2022-12-05T04:35:36.876Z,20.31
2022-12-05T04:38:09.985Z,20.30
2022-12-05T04:40:43.904Z,20.28
2022-12-05T04:43:16.652Z,20.29
2022-12-05T04:45:45.660Z,20.28
2022-12-05T04:48:18.092Z,20.28
2022-12-05T04:50:50.544Z,20.28
2022-12-05T04:53:19.537Z,20.27
2022-12-05T04:55:51.394Z,20.27
2022-12-05T04:58:21.966Z,20.26
2022-12-05T05:00:58.452Z,20.25
2022-12-05T05:03:31.165Z,20.24
2022-12-05T05:06:00.661Z,20.25
2022-12-05T05:08:30.430Z,20.24
2022-12-05T05:11:13.323Z,20.23
2022-12-05T05:13:41.644Z,20.21
2022-12-05T05:16:10.379Z,20.20
2022-12-05T05:18:38.383Z,20.22
2022-12-05T05:21:07.728Z,20.21
2022-12-05T05:23:35.725Z,20.21
2022-12-05T05:26:03.949Z,20.21
2022-12-05T05:28:31.866Z,20.20
2022-12-05T05:31:03.624Z,20.20
2022-12-05T05:33:31.638Z,20.19
2022-12-05T05:36:03.681Z,20.19
2022-12-05T05:38:36.666Z,20.19
2022-12-05T05:41:05.225Z,20.18
2022-12-05T05:43:33.138Z,20.17
2022-12-05T05:46:04.792Z,20.16
2022-12-05T05:48:32.774Z,20.17
2022-12-05T05:51:01.137Z,20.17
2022-12-05T05:53:29.240Z,20.16
2022-12-05T05:55:58.481Z,20.16
2022-12-05T05:58:26.439Z,20.16
2022-12-05T06:00:54.418Z,20.16
2022-12-05T06:03:22.680Z,20.09
2022-12-05T06:05:58.037Z,20.10
2022-12-05T06:08:30.880Z,20.09
2022-12-05T06:11:00.254Z,20.11
2022-12-05T06:13:28.143Z,20.11
2022-12-05T06:15:56.183Z,20.10
2022-12-05T06:18:24.194Z,20.12
2022-12-05T06:20:55.217Z,20.10
2022-12-05T06:23:23.539Z,20.11
2022-12-05T06:25:53.064Z,20.11
2022-12-05T06:28:24.036Z,20.12
2022-12-05T06:30:52.012Z,20.11
2022-12-05T06:33:20.621Z,20.11
2022-12-05T06:35:48.582Z,20.12
2022-12-05T06:38:16.624Z,20.11
2022-12-05T06:40:45.992Z,20.12
2022-12-05T06:43:14.215Z,20.11
2022-12-05T06:45:43.605Z,20.12
2022-12-05T06:48:11.879Z,20.12
2022-12-05T06:50:39.837Z,20.12
2022-12-05T06:53:07.787Z,20.13
2022-12-05T06:55:35.819Z,20.12
2022-12-05T06:58:03.707Z,20.12
2022-12-05T07:00:48.989Z,20.12
2022-12-05T07:03:18.350Z,20.11
2022-12-05T07:05:46.240Z,20.10
2022-12-05T07:08:14.536Z,20.11
2022-12-05T07:10:42.523Z,20.08
2022-12-05T07:13:14.487Z,20.10
2022-12-05T07:15:43.920Z,20.08
2022-12-05T07:18:14.785Z,20.08
2022-12-05T07:21:10.603Z,20.07
2022-12-05T07:23:32.652Z,20.06
2022-12-05T07:26:00.925Z,20.09
2022-12-05T07:28:30.015Z,20.08
2022-12-05T07:31:02.277Z,20.06
2022-12-05T07:33:29.954Z,20.07
2022-12-05T07:36:02.852Z,20.06
2022-12-05T07:38:31.854Z,20.06
2022-12-05T07:40:59.938Z,20.06
2022-12-05T07:43:27.801Z,20.04
2022-12-05T07:45:55.780Z,20.03
2022-12-05T07:48:23.679Z,20.03
2022-12-05T07:50:51.654Z,20.03
2022-12-05T07:53:21.069Z,20.03
2022-12-05T07:55:49.027Z,20.02
2022-12-05T07:58:17.106Z,20.01
2022-12-05T08:00:45.135Z,20.03
2022-12-05T08:03:13.169Z,20.02
2022-12-05T08:05:41.039Z,20.00
2022-12-05T08:08:08.994Z,20.00
2022-12-05T08:10:38.429Z,19.99
2022-12-05T08:13:08.017Z,20.00
2022-12-05T08:15:37.093Z,20.00
2022-12-05T08:18:05.208Z,20.00
2022-12-05T08:20:33.188Z,19.99
2022-12-05T08:23:01.150Z,19.98
2022-12-05T08:25:31.199Z,19.98
2022-12-05T08:28:00.495Z,19.98
2022-12-05T08:30:28.592Z,19.97
2022-12-05T08:32:58.686Z,19.97
2022-12-05T08:35:26.611Z,19.96
2022-12-05T08:37:54.832Z,19.96
2022-12-05T08:40:22.871Z,19.95
2022-12-05T08:42:50.873Z,19.94
2022-12-05T08:45:20.184Z,19.94
2022-12-05T08:47:48.058Z,19.94
2022-12-05T08:50:16.027Z,19.94
2022-12-05T08:52:43.963Z,19.93
2022-12-05T08:55:11.934Z,19.92
2022-12-05T08:57:39.905Z,19.93
2022-12-05T09:00:09.252Z,19.92
2022-12-05T09:02:38.612Z,19.92
2022-12-05T09:05:26.377Z,19.92
2022-12-05T09:07:55.767Z,19.90
2022-12-05T09:10:23.848Z,19.91
2022-12-05T09:12:51.786Z,19.90
2022-12-05T09:15:19.921Z,19.90
2022-12-05T09:17:49.330Z,19.91
2022-12-05T09:20:17.340Z,19.90
2022-12-05T09:22:45.296Z,19.75
2022-12-05T09:25:13.356Z,19.77
2022-12-05T09:27:41.389Z,19.78
2022-12-05T09:30:12.512Z,19.79
2022-12-05T09:32:43.085Z,19.80
2022-12-05T09:35:12.396Z,19.83
2022-12-05T09:37:40.496Z,19.84
2022-12-05T09:40:16.460Z,19.85
2022-12-05T09:42:58.476Z,19.86
2022-12-05T09:45:35.426Z,19.84
2022-12-05T09:48:08.867Z,19.87
2022-12-05T09:50:45.330Z,19.88
2022-12-05T09:53:23.592Z,19.89
2022-12-05T09:55:56.133Z,19.90
2022-12-05T09:58:29.927Z,19.91
2022-12-05T10:01:03.679Z,19.91
2022-12-05T10:03:39.953Z,19.91
2022-12-05T10:06:16.622Z,19.92
2022-12-05T10:08:59.565Z,19.93
2022-12-05T10:11:35.112Z,19.93
2022-12-05T10:14:09.512Z,19.95
2022-12-05T10:16:43.343Z,19.95
2022-12-05T10:19:17.320Z,19.96
2022-12-05T10:21:52.603Z,19.96
2022-12-05T10:24:29.156Z,19.96
2022-12-05T10:27:01.413Z,19.96
2022-12-05T10:29:32.916Z,19.96
2022-12-05T10:32:08.528Z,19.97
2022-12-05T10:34:40.190Z,19.96
2022-12-05T10:37:16.589Z,19.95
2022-12-05T10:39:45.254Z,19.96
2022-12-05T10:42:18.282Z,19.96
2022-12-05T10:44:46.452Z,19.96
2022-12-05T10:47:14.884Z,19.97
2022-12-05T10:49:43.470Z,19.97
2022-12-05T10:52:14.769Z,19.98
2022-12-05T10:54:47.957Z,19.97
2022-12-05T10:57:24.367Z,19.97
2022-12-05T10:59:52.397Z,19.98
2022-12-05T11:02:26.107Z,19.99
2022-12-05T11:04:55.063Z,19.99
2022-12-05T11:07:31.548Z,19.95
2022-12-05T11:10:01.417Z,19.95
2022-12-05T11:12:37.405Z,19.96
2022-12-05T11:15:21.932Z,19.99
2022-12-05T11:17:54.035Z,20.01
2022-12-05T11:20:39.224Z,20.02
2022-12-05T11:23:30.916Z,20.03
2022-12-05T11:26:00.057Z,20.04
2022-12-05T11:28:36.346Z,20.04
2022-12-05T11:31:06.783Z,20.06
2022-12-05T11:33:36.146Z,20.04
2022-12-05T11:36:13.021Z,20.05
2022-12-05T11:38:43.032Z,20.05
2022-12-05T11:41:36.551Z,20.05
2022-12-05T11:44:20.797Z,20.06
2022-12-05T11:47:01.942Z,20.06
2022-12-05T11:49:46.247Z,20.07
2022-12-05T11:52:29.545Z,20.07
2022-12-05T11:55:14.422Z,20.08
2022-12-05T11:58:06.753Z,20.07
2022-12-05T12:00:37.567Z,20.08
2022-12-05T12:03:41.870Z,20.09
2022-12-05T12:06:26.193Z,20.08
2022-12-05T12:09:21.309Z,20.08
2022-12-05T12:11:57.355Z,20.07
2022-12-05T12:14:33.476Z,20.08
2022-12-05T12:17:16.292Z,20.07
2022-12-05T12:20:05.248Z,20.10
2022-12-05T12:22:49.585Z,20.10
2022-12-05T12:25:27.231Z,20.10
2022-12-05T12:28:11.120Z,20.10
2022-12-05T12:30:56.108Z,20.10
2022-12-05T12:33:33.803Z,20.10
2022-12-05T12:36:13.011Z,20.11
2022-12-05T12:39:00.238Z,20.11
2022-12-05T12:41:46.315Z,20.12
2022-12-05T12:44:43.983Z,20.11
2022-12-05T12:47:21.360Z,20.11
2022-12-05T12:50:00.821Z,20.11
2022-12-05T12:52:38.160Z,20.11
2022-12-05T12:55:22.965Z,20.10
2022-12-05T12:58:03.289Z,20.10
2022-12-05T13:00:45.786Z,20.10
2022-12-05T13:03:18.673Z,20.11
2022-12-05T13:05:50.230Z,20.10
2022-12-05T13:08:25.459Z,20.12
2022-12-05T13:10:54.675Z,20.08
2022-12-05T13:13:27.048Z,20.10
2022-12-05T13:15:59.739Z,20.10
2022-12-05T13:18:27.873Z,20.10
2022-12-05T13:20:57.935Z,20.10
2022-12-05T13:23:28.863Z,20.10
2022-12-05T13:25:59.588Z,20.08
2022-12-05T13:28:31.168Z,20.07
2022-12-05T13:31:06.366Z,20.07
2022-12-05T13:33:37.753Z,20.07
2022-12-05T13:36:29.713Z,20.07
2022-12-05T13:39:18.265Z,20.07
2022-12-05T13:42:06.158Z,20.07
2022-12-05T13:44:38.985Z,20.08
2022-12-05T13:47:20.496Z,20.08
2022-12-05T13:49:53.946Z,20.07
2022-12-05T13:52:26.430Z,20.07
2022-12-05T13:54:59.390Z,20.08
2022-12-05T13:57:46.545Z,20.08
2022-12-05T14:00:30.493Z,20.10
2022-12-05T14:03:03.382Z,20.08
2022-12-05T14:05:46.602Z,20.10
2022-12-05T14:08:52.733Z,20.10
2022-12-05T14:11:20.962Z,20.12
2022-12-05T14:13:49.734Z,20.13
2022-12-05T14:16:44.377Z,20.13
2022-12-05T14:19:34.521Z,20.14
2022-12-05T14:22:24.121Z,20.14
2022-12-05T14:25:00.007Z,20.07
2022-12-05T14:27:44.389Z,20.09
2022-12-05T14:30:22.703Z,20.13
2022-12-05T14:32:54.169Z,20.14
2022-12-05T14:35:30.699Z,20.15
2022-12-05T14:38:02.563Z,20.17
2022-12-05T14:40:33.937Z,20.17
2022-12-05T14:43:05.056Z,20.18
2022-12-05T14:45:39.942Z,20.20
2022-12-05T14:48:28.490Z,20.21
2022-12-05T14:50:59.215Z,20.22
2022-12-05T14:53:40.618Z,20.21
2022-12-05T14:56:21.893Z,20.22
2022-12-05T14:58:52.839Z,20.21
2022-12-05T15:01:24.187Z,20.23
2022-12-05T15:04:10.368Z,20.24
2022-12-05T15:06:47.946Z,20.26
2022-12-05T15:09:42.410Z,20.27
2022-12-05T15:12:16.020Z,20.28
2022-12-05T15:14:54.610Z,20.28
2022-12-05T15:17:28.674Z,20.29
2022-12-05T15:20:05.041Z,20.30
2022-12-05T15:22:38.726Z,20.32
2022-12-05T15:25:27.832Z,20.32
2022-12-05T15:27:58.772Z,20.34
2022-12-05T15:30:27.256Z,20.33
2022-12-05T15:32:59.455Z,20.34
2022-12-05T15:35:32.259Z,20.35
2022-12-05T15:38:06.459Z,20.36
2022-12-05T15:40:37.863Z,20.36
2022-12-05T15:43:29.404Z,20.37
2022-12-05T15:46:25.423Z,20.39
2022-12-05T15:48:54.344Z,20.40
2022-12-05T15:51:26.182Z,20.41
2022-12-05T15:54:06.678Z,20.41
2022-12-05T15:56:39.354Z,20.42
2022-12-05T15:59:14.925Z,20.44
2022-12-05T16:01:45.798Z,20.44
2022-12-05T16:04:29.553Z,20.44
2022-12-05T16:07:02.433Z,20.45
2022-12-05T16:09:35.166Z,20.45
2022-12-05T16:12:06.097Z,20.44
2022-12-05T16:14:59.136Z,20.45
2022-12-05T16:17:25.795Z,20.45
2022-12-05T16:19:53.785Z,20.46
2022-12-05T16:22:24.461Z,20.46
2022-12-05T16:25:02.032Z,20.47
2022-12-05T16:27:33.322Z,20.48
2022-12-05T16:30:20.082Z,20.49
2022-12-05T16:32:50.034Z,20.48
2022-12-05T16:35:32.652Z,20.50
2022-12-05T16:38:11.142Z,20.51
2022-12-05T16:40:53.243Z,20.46
2022-12-05T16:43:27.110Z,20.47
2022-12-05T16:45:57.121Z,20.47
2022-12-05T16:48:27.405Z,20.49
2022-12-05T16:51:17.694Z,20.51
2022-12-05T16:53:47.308Z,20.52
2022-12-05T16:56:18.098Z,20.53
2022-12-05T16:58:46.070Z,20.57
2022-12-05T17:01:18.724Z,20.55
2022-12-05T17:03:46.985Z,20.58
2022-12-05T17:06:15.857Z,20.61
2022-12-05T17:08:43.912Z,20.63
2022-12-05T17:11:20.010Z,20.65
2022-12-05T17:13:48.668Z,20.67
2022-12-05T17:16:17.270Z,20.70
2022-12-05T17:18:45.261Z,20.73
2022-12-05T17:21:17.619Z,20.75
2022-12-05T17:23:48.010Z,20.78
2022-12-05T17:26:19.656Z,20.79
2022-12-05T17:28:47.800Z,20.80
2022-12-05T17:31:17.471Z,20.84
2022-12-05T17:33:45.996Z,20.86
2022-12-05T17:36:14.552Z,20.88
2022-12-05T17:38:42.817Z,20.90
2022-12-05T17:41:18.319Z,20.92
2022-12-05T17:43:46.671Z,20.92
2022-12-05T17:46:17.368Z,20.92
2022-12-05T17:48:45.373Z,20.92
2022-12-05T17:51:14.633Z,20.94
2022-12-05T17:53:44.442Z,20.93
2022-12-05T17:56:13.383Z,20.95
2022-12-05T17:58:43.153Z,20.93
2022-12-05T18:01:16.198Z,20.94
2022-12-05T18:03:44.387Z,20.95
2022-12-05T18:06:12.705Z,20.96
2022-12-05T18:08:42.141Z,20.96
2022-12-05T18:11:10.188Z,20.97
2022-12-05T18:13:38.591Z,20.98
2022-12-05T18:16:08.675Z,20.98
2022-12-05T18:18:36.701Z,20.98
2022-12-05T18:21:06.881Z,20.97
2022-12-05T18:23:36.028Z,20.97
2022-12-05T18:26:04.552Z,20.97
2022-12-05T18:28:32.474Z,20.97
2022-12-05T18:31:09.369Z,20.96
2022-12-05T18:33:37.772Z,20.96
2022-12-05T18:36:11.504Z,20.96
2022-12-05T18:38:40.742Z,20.95
2022-12-05T18:41:08.742Z,20.95
2022-12-05T18:43:37.334Z,20.93
2022-12-05T18:46:06.056Z,20.66
2022-12-05T18:48:40.128Z,20.73
2022-12-05T18:51:12.097Z,20.76
2022-12-05T18:53:40.236Z,20.73
2022-12-05T18:56:22.278Z,20.75
2022-12-05T18:58:55.568Z,20.77
2022-12-05T19:01:23.920Z,20.77
2022-12-05T19:03:53.490Z,20.78
2022-12-05T19:06:23.395Z,20.62
2022-12-05T19:08:55.128Z,20.66
2022-12-05T19:11:24.026Z,20.67
2022-12-05T19:13:55.957Z,20.69
2022-12-05T19:16:24.272Z,20.70
2022-12-05T19:18:56.661Z,20.71
2022-12-05T19:21:25.695Z,20.72
2022-12-05T19:23:54.088Z,20.73
2022-12-05T19:26:23.232Z,20.74
2022-12-05T19:28:51.193Z,20.74
2022-12-05T19:31:21.474Z,20.76
2022-12-05T19:33:51.516Z,20.76
2022-12-05T19:36:22.734Z,20.75
2022-12-05T19:38:52.066Z,20.75
2022-12-05T19:41:22.613Z,20.76
2022-12-05T19:43:50.898Z,20.77
2022-12-05T19:46:20.513Z,20.78
2022-12-05T19:48:48.965Z,20.79
2022-12-05T19:51:21.378Z,20.78
2022-12-05T19:53:49.557Z,20.79
2022-12-05T19:56:19.474Z,20.78
2022-12-05T19:58:48.439Z,20.80
2022-12-05T20:01:18.661Z,20.79
2022-12-05T20:03:49.110Z,20.79
2022-12-05T20:06:17.647Z,20.79
2022-12-05T20:08:47.341Z,20.80
2022-12-05T20:11:18.039Z,20.80
2022-12-05T20:13:47.594Z,20.80
2022-12-05T20:16:18.476Z,20.79
2022-12-05T20:18:47.048Z,20.79
2022-12-05T20:21:16.850Z,20.79
2022-12-05T20:23:46.513Z,20.79
2022-12-05T20:26:16.676Z,20.79
2022-12-05T20:28:45.622Z,20.80
2022-12-05T20:31:17.285Z,20.81
2022-12-05T20:33:46.122Z,20.79
2022-12-05T20:36:15.993Z,20.80
2022-12-05T20:38:44.035Z,20.80
2022-12-05T20:41:16.395Z,20.80
2022-12-05T20:43:45.071Z,20.80
2022-12-05T20:46:15.853Z,20.81
2022-12-05T20:48:47.583Z,20.81
2022-12-05T20:51:17.296Z,20.81
2022-12-05T20:53:46.287Z,20.80
2022-12-05T20:56:17.130Z,20.81
2022-12-05T20:58:46.875Z,20.82
2022-12-05T21:01:16.611Z,20.83
2022-12-05T21:03:49.676Z,20.83
2022-12-05T21:06:20.531Z,20.83
2022-12-05T21:08:48.484Z,20.82
2022-12-05T21:11:17.773Z,20.83
2022-12-05T21:13:46.168Z,20.83
2022-12-05T21:16:17.130Z,20.84
2022-12-05T21:18:45.781Z,20.85
2022-12-05T21:21:15.918Z,20.84
2022-12-05T21:23:48.481Z,20.84
2022-12-05T21:26:18.902Z,20.85
2022-12-05T21:28:47.503Z,20.85
2022-12-05T21:31:18.069Z,20.85
2022-12-05T21:33:49.292Z,20.86
2022-12-05T21:36:18.141Z,20.87
2022-12-05T21:38:49.539Z,20.87
2022-12-05T21:41:23.606Z,20.87
2022-12-05T21:43:54.994Z,20.87
2022-12-05T21:46:24.102Z,20.88
2022-12-05T21:48:52.381Z,20.88
2022-12-05T21:51:20.925Z,20.88
2022-12-05T21:53:48.937Z,20.88
2022-12-05T21:56:19.609Z,20.88
2022-12-05T21:58:48.881Z,20.89
2022-12-05T22:01:19.680Z,20.89
2022-12-05T22:03:48.105Z,20.89
2022-12-05T22:06:16.389Z,20.89
2022-12-05T22:08:44.389Z,20.89
2022-12-05T22:11:14.618Z,20.89
2022-12-05T22:13:44.298Z,20.90
2022-12-05T22:16:14.154Z,20.89
2022-12-05T22:18:42.536Z,20.88
2022-12-05T22:21:14.461Z,20.89
2022-12-05T22:23:42.515Z,20.88
2022-12-05T22:26:11.841Z,20.88
2022-12-05T22:28:40.868Z,20.88
2022-12-05T22:31:11.148Z,20.88
2022-12-05T22:33:40.700Z,20.88
2022-12-05T22:36:10.767Z,20.87
2022-12-05T22:38:40.314Z,20.87
2022-12-05T22:41:10.865Z,20.86
2022-12-05T22:43:39.174Z,20.86
2022-12-05T22:46:08.506Z,20.86
2022-12-05T22:48:37.059Z,20.85
2022-12-05T22:51:07.863Z,20.85
2022-12-05T22:53:36.276Z,20.85
2022-12-05T22:56:05.861Z,20.85
2022-12-05T22:58:34.245Z,20.85
2022-12-05T23:01:09.755Z,20.84
2022-12-05T23:03:38.043Z,20.83
2022-12-05T23:06:11.814Z,20.84
2022-12-05T23:08:40.603Z,20.83
2022-12-05T23:11:09.837Z,20.83
2022-12-05T23:13:39.398Z,20.83
2022-12-05T23:16:09.007Z,20.83
2022-12-05T23:18:46.931Z,20.84
2022-12-05T23:21:20.092Z,20.84
2022-12-05T23:23:49.018Z,20.83
2022-12-05T23:26:17.993Z,20.83
2022-12-05T23:28:46.234Z,20.83
2022-12-05T23:31:15.141Z,20.83
2022-12-05T23:33:43.768Z,20.82
2022-12-05T23:36:12.300Z,20.82
2022-12-05T23:38:43.395Z,20.80
2022-12-05T23:41:14.306Z,20.79
2022-12-05T23:43:43.521Z,20.79
2022-12-05T23:46:13.621Z,20.77
2022-12-05T23:48:42.248Z,20.76
2022-12-05T23:51:12.820Z,20.76
2022-12-05T23:53:44.509Z,20.73
2022-12-05T23:56:14.822Z,20.73
2022-12-05T23:58:43.675Z,20.72
